sensor_id;sensor_type;location;lat;lon;timestamp;temperature;humidity
26803;DHT22;14378;51.796;5.808;2023-05-10T00:06:09;14.50;99.90
26803;DHT22;14378;51.796;5.808;2023-05-10T00:08:10;14.50;99.90
26803;DHT22;14378;51.796;5.808;2023-05-10T00:10:12;14.50;99.90
26803;DHT22;14378;51.796;5.808;2023-05-10T00:12:13;14.50;99.90
26803;DHT22;14378;51.796;5.808;2023-05-10T00:14:14;14.50;99.90
26803;DHT22;14378;51.796;5.808;2023-05-10T00:16:15;14.60;99.90
26803;DHT22;14378;51.796;5.808;2023-05-10T00:18:20;14.60;99.90
26803;DHT22;14378;51.796;5.808;2023-05-10T00:20:21;14.60;99.90
26803;DHT22;14378;51.796;5.808;2023-05-10T00:22:22;14.60;99.90
26803;DHT22;14378;51.796;5.808;2023-05-10T00:24:23;14.50;99.90
26803;DHT22;14378;51.796;5.808;2023-05-10T00:26:24;14.50;99.90
26803;DHT22;14378;51.796;5.808;2023-05-10T00:28:28;14.50;99.90
26803;DHT22;14378;51.796;5.808;2023-05-10T00:30:31;14.50;99.90
26803;DHT22;14378;51.796;5.808;2023-05-10T00:32:32;14.50;99.90
26803;DHT22;14378;51.796;5.808;2023-05-10T00:34:33;14.50;99.90
26803;DHT22;14378;51.796;5.808;2023-05-10T00:36:34;14.50;99.90
26803;DHT22;14378;51.796;5.808;2023-05-10T00:38:35;14.40;99.90
26803;DHT22;14378;51.796;5.808;2023-05-10T00:40:37;14.40;99.90
26803;DHT22;14378;51.796;5.808;2023-05-10T00:42:42;14.40;99.90
26803;DHT22;14378;51.796;5.808;2023-05-10T00:44:43;14.40;99.90
26803;DHT22;14378;51.796;5.808;2023-05-10T00:46:53;14.40;99.90
26803;DHT22;14378;51.796;5.808;2023-05-10T00:48:54;14.40;99.90
26803;DHT22;14378;51.796;5.808;2023-05-10T00:50:56;14.40;99.90
26803;DHT22;14378;51.796;5.808;2023-05-10T00:52:59;14.40;99.90
26803;DHT22;14378;51.796;5.808;2023-05-10T00:55:00;14.40;99.90
26803;DHT22;14378;51.796;5.808;2023-05-10T00:57:02;14.40;99.90
26803;DHT22;14378;51.796;5.808;2023-05-10T00:59:04;14.30;99.90
26803;DHT22;14378;51.796;5.808;2023-05-10T01:01:06;14.30;99.90
26803;DHT22;14378;51.796;5.808;2023-05-10T01:03:09;14.30;99.90
26803;DHT22;14378;51.796;5.808;2023-05-10T01:05:10;14.20;99.90
26803;DHT22;14378;51.796;5.808;2023-05-10T01:07:12;14.30;99.90
26803;DHT22;14378;51.796;5.808;2023-05-10T01:09:13;14.30;99.90
26803;DHT22;14378;51.796;5.808;2023-05-10T01:11:20;14.30;99.90
26803;DHT22;14378;51.796;5.808;2023-05-10T01:15:33;14.30;99.90
26803;DHT22;14378;51.796;5.808;2023-05-10T01:17:37;14.30;99.90
26803;DHT22;14378;51.796;5.808;2023-05-10T01:19:39;14.30;99.90
26803;DHT22;14378;51.796;5.808;2023-05-10T01:21:45;14.30;99.90
26803;DHT22;14378;51.796;5.808;2023-05-10T01:33:46;14.30;99.90
26803;DHT22;14378;51.796;5.808;2023-05-10T01:40:37;14.20;99.90
26803;DHT22;14378;51.796;5.808;2023-05-10T01:42:47;14.20;99.90
26803;DHT22;14378;51.796;5.808;2023-05-10T01:44:53;14.20;99.90
26803;DHT22;14378;51.796;5.808;2023-05-10T01:47:20;14.20;99.90
26803;DHT22;14378;51.796;5.808;2023-05-10T01:49:31;14.10;99.90
26803;DHT22;14378;51.796;5.808;2023-05-10T01:51:41;14.10;99.90
26803;DHT22;14378;51.796;5.808;2023-05-10T01:53:50;14.10;99.90
26803;DHT22;14378;51.796;5.808;2023-05-10T01:55:53;14.10;99.90
26803;DHT22;14378;51.796;5.808;2023-05-10T01:58:09;14.10;99.90
26803;DHT22;14378;51.796;5.808;2023-05-10T02:00:13;14.10;99.90
26803;DHT22;14378;51.796;5.808;2023-05-10T02:02:15;14.10;99.90
26803;DHT22;14378;51.796;5.808;2023-05-10T02:04:19;14.00;99.90
26803;DHT22;14378;51.796;5.808;2023-05-10T02:06:23;14.10;99.90
26803;DHT22;14378;51.796;5.808;2023-05-10T02:08:27;14.00;99.90
26803;DHT22;14378;51.796;5.808;2023-05-10T02:10:29;14.10;99.90
26803;DHT22;14378;51.796;5.808;2023-05-10T02:12:33;14.10;99.90
26803;DHT22;14378;51.796;5.808;2023-05-10T02:14:37;14.10;99.90
26803;DHT22;14378;51.796;5.808;2023-05-10T02:16:39;14.10;99.90
26803;DHT22;14378;51.796;5.808;2023-05-10T02:18:41;14.10;99.90
26803;DHT22;14378;51.796;5.808;2023-05-10T02:20:47;14.10;99.90
26803;DHT22;14378;51.796;5.808;2023-05-10T02:22:52;14.10;99.90
26803;DHT22;14378;51.796;5.808;2023-05-10T02:24:55;14.10;99.90
26803;DHT22;14378;51.796;5.808;2023-05-10T02:26:59;14.10;99.90
26803;DHT22;14378;51.796;5.808;2023-05-10T02:29:03;14.10;99.90
26803;DHT22;14378;51.796;5.808;2023-05-10T02:31:10;14.10;99.90
26803;DHT22;14378;51.796;5.808;2023-05-10T02:33:13;14.10;99.90
26803;DHT22;14378;51.796;5.808;2023-05-10T02:35:15;14.10;99.90
26803;DHT22;14378;51.796;5.808;2023-05-10T02:37:21;14.00;99.90
26803;DHT22;14378;51.796;5.808;2023-05-10T02:39:22;14.00;99.90
26803;DHT22;14378;51.796;5.808;2023-05-10T02:41:25;14.00;99.90
26803;DHT22;14378;51.796;5.808;2023-05-10T02:43:30;13.90;99.90
26803;DHT22;14378;51.796;5.808;2023-05-10T02:45:37;13.90;99.90
26803;DHT22;14378;51.796;5.808;2023-05-10T02:47:39;13.90;99.90
26803;DHT22;14378;51.796;5.808;2023-05-10T02:49:40;13.80;99.90
26803;DHT22;14378;51.796;5.808;2023-05-10T02:51:49;13.80;99.90
26803;DHT22;14378;51.796;5.808;2023-05-10T02:53:53;13.80;99.90
26803;DHT22;14378;51.796;5.808;2023-05-10T02:55:58;13.80;99.90
26803;DHT22;14378;51.796;5.808;2023-05-10T02:58:01;13.80;99.90
26803;DHT22;14378;51.796;5.808;2023-05-10T03:00:03;13.80;99.90
26803;DHT22;14378;51.796;5.808;2023-05-10T03:02:07;13.80;99.90
26803;DHT22;14378;51.796;5.808;2023-05-10T03:04:09;13.80;99.90
26803;DHT22;14378;51.796;5.808;2023-05-10T03:06:10;13.80;99.90
26803;DHT22;14378;51.796;5.808;2023-05-10T03:08:11;13.90;99.90
26803;DHT22;14378;51.796;5.808;2023-05-10T03:10:12;13.90;99.90
26803;DHT22;14378;51.796;5.808;2023-05-10T03:16:51;13.90;99.90
26803;DHT22;14378;51.796;5.808;2023-05-10T03:19:11;14.00;99.90
26803;DHT22;14378;51.796;5.808;2023-05-10T03:21:18;14.00;99.90
26803;DHT22;14378;51.796;5.808;2023-05-10T03:24:07;14.00;99.90
26803;DHT22;14378;51.796;5.808;2023-05-10T03:26:21;14.00;99.90
26803;DHT22;14378;51.796;5.808;2023-05-10T03:28:27;14.00;99.90
26803;DHT22;14378;51.796;5.808;2023-05-10T03:30:28;14.00;99.90
26803;DHT22;14378;51.796;5.808;2023-05-10T03:32:30;14.10;99.90
26803;DHT22;14378;51.796;5.808;2023-05-10T03:34:33;14.00;99.90
26803;DHT22;14378;51.796;5.808;2023-05-10T03:36:34;14.00;99.90
26803;DHT22;14378;51.796;5.808;2023-05-10T03:38:36;14.00;99.90
26803;DHT22;14378;51.796;5.808;2023-05-10T03:40:37;14.00;99.90
26803;DHT22;14378;51.796;5.808;2023-05-10T03:42:38;14.00;99.90
26803;DHT22;14378;51.796;5.808;2023-05-10T03:44:40;14.00;99.90
26803;DHT22;14378;51.796;5.808;2023-05-10T03:46:41;13.90;99.90
26803;DHT22;14378;51.796;5.808;2023-05-10T03:48:45;13.90;99.90
26803;DHT22;14378;51.796;5.808;2023-05-10T03:50:45;13.90;99.90
26803;DHT22;14378;51.796;5.808;2023-05-10T03:52:48;13.90;99.90
26803;DHT22;14378;51.796;5.808;2023-05-10T03:54:49;13.90;99.90
26803;DHT22;14378;51.796;5.808;2023-05-10T03:56:50;13.90;99.90
26803;DHT22;14378;51.796;5.808;2023-05-10T03:58:53;14.00;99.90
26803;DHT22;14378;51.796;5.808;2023-05-10T04:00:54;14.00;99.90
26803;DHT22;14378;51.796;5.808;2023-05-10T04:02:56;14.00;99.90
26803;DHT22;14378;51.796;5.808;2023-05-10T04:05:06;13.90;99.90
26803;DHT22;14378;51.796;5.808;2023-05-10T04:07:07;14.00;99.90
26803;DHT22;14378;51.796;5.808;2023-05-10T04:09:12;13.90;99.90
26803;DHT22;14378;51.796;5.808;2023-05-10T04:11:14;14.00;99.90
26803;DHT22;14378;51.796;5.808;2023-05-10T04:13:15;14.00;99.90
26803;DHT22;14378;51.796;5.808;2023-05-10T04:15:21;14.00;99.90
26803;DHT22;14378;51.796;5.808;2023-05-10T04:17:22;14.00;99.90
26803;DHT22;14378;51.796;5.808;2023-05-10T04:19:23;14.00;99.90
26803;DHT22;14378;51.796;5.808;2023-05-10T04:21:24;14.00;99.90
26803;DHT22;14378;51.796;5.808;2023-05-10T04:23:25;14.10;99.90
26803;DHT22;14378;51.796;5.808;2023-05-10T04:25:26;14.00;99.90
26803;DHT22;14378;51.796;5.808;2023-05-10T04:27:26;14.10;99.90
26803;DHT22;14378;51.796;5.808;2023-05-10T04:29:27;14.10;99.90
26803;DHT22;14378;51.796;5.808;2023-05-10T04:31:28;14.20;99.90
26803;DHT22;14378;51.796;5.808;2023-05-10T04:33:29;14.10;99.90
26803;DHT22;14378;51.796;5.808;2023-05-10T04:35:30;14.10;99.90
26803;DHT22;14378;51.796;5.808;2023-05-10T04:37:31;14.10;99.90
26803;DHT22;14378;51.796;5.808;2023-05-10T04:39:32;14.10;99.90
26803;DHT22;14378;51.796;5.808;2023-05-10T04:41:33;14.10;99.90
26803;DHT22;14378;51.796;5.808;2023-05-10T04:43:34;14.10;99.90
26803;DHT22;14378;51.796;5.808;2023-05-10T04:45:36;14.10;99.90
26803;DHT22;14378;51.796;5.808;2023-05-10T04:47:37;14.10;99.90
26803;DHT22;14378;51.796;5.808;2023-05-10T04:49:38;14.10;99.90
26803;DHT22;14378;51.796;5.808;2023-05-10T04:51:39;14.10;99.90
26803;DHT22;14378;51.796;5.808;2023-05-10T04:53:43;14.10;99.90
26803;DHT22;14378;51.796;5.808;2023-05-10T04:55:44;14.10;99.90
26803;DHT22;14378;51.796;5.808;2023-05-10T04:57:45;14.20;99.90
26803;DHT22;14378;51.796;5.808;2023-05-10T04:59:47;14.20;99.90
26803;DHT22;14378;51.796;5.808;2023-05-10T05:01:52;14.20;99.90
26803;DHT22;14378;51.796;5.808;2023-05-10T05:03:53;14.20;99.90
26803;DHT22;14378;51.796;5.808;2023-05-10T05:05:54;14.20;99.90
26803;DHT22;14378;51.796;5.808;2023-05-10T05:07:56;14.20;99.90
26803;DHT22;14378;51.796;5.808;2023-05-10T05:09:57;14.20;99.90
26803;DHT22;14378;51.796;5.808;2023-05-10T05:11:58;14.20;99.90
26803;DHT22;14378;51.796;5.808;2023-05-10T05:14:00;14.30;99.90
26803;DHT22;14378;51.796;5.808;2023-05-10T05:16:02;14.20;99.90
26803;DHT22;14378;51.796;5.808;2023-05-10T05:18:03;14.20;99.90
26803;DHT22;14378;51.796;5.808;2023-05-10T05:20:05;14.20;99.90
26803;DHT22;14378;51.796;5.808;2023-05-10T05:22:10;14.20;99.90
26803;DHT22;14378;51.796;5.808;2023-05-10T05:24:14;14.20;99.90
26803;DHT22;14378;51.796;5.808;2023-05-10T05:26:18;14.20;99.90
26803;DHT22;14378;51.796;5.808;2023-05-10T05:28:20;14.10;99.90
26803;DHT22;14378;51.796;5.808;2023-05-10T05:30:21;14.10;99.90
26803;DHT22;14378;51.796;5.808;2023-05-10T05:32:23;14.10;99.90
26803;DHT22;14378;51.796;5.808;2023-05-10T05:34:24;14.20;99.90
26803;DHT22;14378;51.796;5.808;2023-05-10T05:36:26;14.10;99.90
26803;DHT22;14378;51.796;5.808;2023-05-10T05:38:27;14.10;99.90
26803;DHT22;14378;51.796;5.808;2023-05-10T05:40:29;14.10;99.90
26803;DHT22;14378;51.796;5.808;2023-05-10T05:42:31;14.10;99.90
26803;DHT22;14378;51.796;5.808;2023-05-10T05:44:32;14.10;99.90
26803;DHT22;14378;51.796;5.808;2023-05-10T05:46:34;14.20;99.90
26803;DHT22;14378;51.796;5.808;2023-05-10T05:48:39;14.20;99.90
26803;DHT22;14378;51.796;5.808;2023-05-10T05:50:39;14.20;99.90
26803;DHT22;14378;51.796;5.808;2023-05-10T05:52:41;14.20;99.90
26803;DHT22;14378;51.796;5.808;2023-05-10T05:54:42;14.20;99.90
26803;DHT22;14378;51.796;5.808;2023-05-10T05:56:43;14.20;99.90
26803;DHT22;14378;51.796;5.808;2023-05-10T05:58:45;14.30;99.90
26803;DHT22;14378;51.796;5.808;2023-05-10T06:00:49;14.30;99.90
26803;DHT22;14378;51.796;5.808;2023-05-10T06:02:53;14.30;99.90
26803;DHT22;14378;51.796;5.808;2023-05-10T06:04:54;14.30;99.90
26803;DHT22;14378;51.796;5.808;2023-05-10T06:06:56;14.30;99.90
26803;DHT22;14378;51.796;5.808;2023-05-10T06:08:57;14.30;99.90
26803;DHT22;14378;51.796;5.808;2023-05-10T06:10:59;14.30;99.90
26803;DHT22;14378;51.796;5.808;2023-05-10T06:13:00;14.20;99.90
26803;DHT22;14378;51.796;5.808;2023-05-10T06:15:01;14.20;99.90
26803;DHT22;14378;51.796;5.808;2023-05-10T06:17:03;14.10;99.90
26803;DHT22;14378;51.796;5.808;2023-05-10T06:19:05;14.10;99.90
26803;DHT22;14378;51.796;5.808;2023-05-10T06:21:06;14.10;99.90
26803;DHT22;14378;51.796;5.808;2023-05-10T06:23:07;14.10;99.90
26803;DHT22;14378;51.796;5.808;2023-05-10T06:25:09;14.10;99.90
26803;DHT22;14378;51.796;5.808;2023-05-10T06:27:10;14.10;99.90
26803;DHT22;14378;51.796;5.808;2023-05-10T06:29:11;14.10;99.90
26803;DHT22;14378;51.796;5.808;2023-05-10T06:31:12;14.10;99.90
26803;DHT22;14378;51.796;5.808;2023-05-10T06:33:21;14.10;99.90
26803;DHT22;14378;51.796;5.808;2023-05-10T06:35:22;14.10;99.90
26803;DHT22;14378;51.796;5.808;2023-05-10T06:37:23;14.10;99.90
26803;DHT22;14378;51.796;5.808;2023-05-10T06:39:24;14.10;99.90
26803;DHT22;14378;51.796;5.808;2023-05-10T06:41:25;14.10;99.90
26803;DHT22;14378;51.796;5.808;2023-05-10T06:43:29;14.10;99.90
26803;DHT22;14378;51.796;5.808;2023-05-10T06:45:30;14.00;99.90
26803;DHT22;14378;51.796;5.808;2023-05-10T06:47:31;14.10;99.90
26803;DHT22;14378;51.796;5.808;2023-05-10T06:49:32;14.00;99.90
26803;DHT22;14378;51.796;5.808;2023-05-10T06:51:33;14.00;99.90
26803;DHT22;14378;51.796;5.808;2023-05-10T06:53:34;14.10;99.90
26803;DHT22;14378;51.796;5.808;2023-05-10T06:55:40;14.00;99.90
26803;DHT22;14378;51.796;5.808;2023-05-10T06:57:41;14.00;99.90
26803;DHT22;14378;51.796;5.808;2023-05-10T06:59:42;14.10;99.90
26803;DHT22;14378;51.796;5.808;2023-05-10T07:01:43;14.10;99.90
26803;DHT22;14378;51.796;5.808;2023-05-10T07:03:44;14.10;99.90
26803;DHT22;14378;51.796;5.808;2023-05-10T07:05:47;14.20;99.90
26803;DHT22;14378;51.796;5.808;2023-05-10T07:07:49;14.20;99.90
26803;DHT22;14378;51.796;5.808;2023-05-10T07:09:51;14.30;99.90
26803;DHT22;14378;51.796;5.808;2023-05-10T07:11:52;14.30;99.90
26803;DHT22;14378;51.796;5.808;2023-05-10T07:13:53;14.30;99.90
26803;DHT22;14378;51.796;5.808;2023-05-10T07:15:55;14.30;99.90
26803;DHT22;14378;51.796;5.808;2023-05-10T07:17:56;14.40;99.90
26803;DHT22;14378;51.796;5.808;2023-05-10T07:19:57;14.40;99.90
26803;DHT22;14378;51.796;5.808;2023-05-10T07:21:59;14.50;99.90
26803;DHT22;14378;51.796;5.808;2023-05-10T07:24:03;14.50;99.90
26803;DHT22;14378;51.796;5.808;2023-05-10T07:26:04;14.50;99.90
26803;DHT22;14378;51.796;5.808;2023-05-10T07:28:05;14.50;99.90
26803;DHT22;14378;51.796;5.808;2023-05-10T07:30:07;14.60;99.90
26803;DHT22;14378;51.796;5.808;2023-05-10T07:32:08;14.60;99.90
26803;DHT22;14378;51.796;5.808;2023-05-10T07:34:09;14.60;99.90
26803;DHT22;14378;51.796;5.808;2023-05-10T07:36:10;14.70;99.90
26803;DHT22;14378;51.796;5.808;2023-05-10T07:38:11;14.70;99.90
26803;DHT22;14378;51.796;5.808;2023-05-10T07:40:12;14.70;99.90
26803;DHT22;14378;51.796;5.808;2023-05-10T07:42:13;14.80;99.90
26803;DHT22;14378;51.796;5.808;2023-05-10T07:44:14;14.80;99.90
26803;DHT22;14378;51.796;5.808;2023-05-10T07:46:15;14.80;99.90
26803;DHT22;14378;51.796;5.808;2023-05-10T07:48:17;14.80;99.90
26803;DHT22;14378;51.796;5.808;2023-05-10T07:50:18;14.70;99.90
26803;DHT22;14378;51.796;5.808;2023-05-10T07:52:19;14.70;99.90
26803;DHT22;14378;51.796;5.808;2023-05-10T07:54:20;14.70;99.90
26803;DHT22;14378;51.796;5.808;2023-05-10T07:56:27;14.70;99.90
26803;DHT22;14378;51.796;5.808;2023-05-10T07:58:30;14.70;99.90
26803;DHT22;14378;51.796;5.808;2023-05-10T08:00:31;14.80;99.90
26803;DHT22;14378;51.796;5.808;2023-05-10T08:02:34;14.80;99.90
26803;DHT22;14378;51.796;5.808;2023-05-10T08:04:35;14.90;99.90
26803;DHT22;14378;51.796;5.808;2023-05-10T08:06:36;15.00;99.90
26803;DHT22;14378;51.796;5.808;2023-05-10T08:08:37;15.00;99.90
26803;DHT22;14378;51.796;5.808;2023-05-10T08:10:38;15.10;99.90
26803;DHT22;14378;51.796;5.808;2023-05-10T08:12:39;15.20;99.90
26803;DHT22;14378;51.796;5.808;2023-05-10T08:14:41;15.30;99.90
26803;DHT22;14378;51.796;5.808;2023-05-10T08:16:44;15.30;99.90
26803;DHT22;14378;51.796;5.808;2023-05-10T08:18:47;15.40;99.90
26803;DHT22;14378;51.796;5.808;2023-05-10T08:20:49;15.40;99.90
26803;DHT22;14378;51.796;5.808;2023-05-10T08:22:50;15.50;99.90
26803;DHT22;14378;51.796;5.808;2023-05-10T08:24:51;15.50;99.90
26803;DHT22;14378;51.796;5.808;2023-05-10T08:26:52;15.50;99.90
26803;DHT22;14378;51.796;5.808;2023-05-10T08:28:53;15.50;99.90
26803;DHT22;14378;51.796;5.808;2023-05-10T08:30:54;15.50;99.90
26803;DHT22;14378;51.796;5.808;2023-05-10T08:32:55;15.60;99.90
26803;DHT22;14378;51.796;5.808;2023-05-10T08:34:56;15.60;99.90
26803;DHT22;14378;51.796;5.808;2023-05-10T08:36:57;15.60;99.90
26803;DHT22;14378;51.796;5.808;2023-05-10T08:38:58;15.60;99.90
26803;DHT22;14378;51.796;5.808;2023-05-10T08:41:01;15.70;99.90
26803;DHT22;14378;51.796;5.808;2023-05-10T08:43:09;15.70;99.90
26803;DHT22;14378;51.796;5.808;2023-05-10T08:45:11;15.70;99.90
26803;DHT22;14378;51.796;5.808;2023-05-10T08:47:16;15.70;99.90
26803;DHT22;14378;51.796;5.808;2023-05-10T08:49:20;15.80;99.90
26803;DHT22;14378;51.796;5.808;2023-05-10T08:51:28;15.80;99.90
26803;DHT22;14378;51.796;5.808;2023-05-10T08:53:39;15.90;99.90
26803;DHT22;14378;51.796;5.808;2023-05-10T08:55:40;16.00;99.90
26803;DHT22;14378;51.796;5.808;2023-05-10T08:57:42;16.10;99.90
26803;DHT22;14378;51.796;5.808;2023-05-10T08:59:46;16.10;99.90
26803;DHT22;14378;51.796;5.808;2023-05-10T09:01:51;16.10;99.90
26803;DHT22;14378;51.796;5.808;2023-05-10T09:03:54;16.10;99.90
26803;DHT22;14378;51.796;5.808;2023-05-10T09:05:56;16.00;99.90
26803;DHT22;14378;51.796;5.808;2023-05-10T09:07:57;16.00;99.90
26803;DHT22;14378;51.796;5.808;2023-05-10T09:09:59;16.00;99.90
26803;DHT22;14378;51.796;5.808;2023-05-10T09:12:00;16.00;99.90
26803;DHT22;14378;51.796;5.808;2023-05-10T09:14:02;15.90;99.90
26803;DHT22;14378;51.796;5.808;2023-05-10T09:16:09;15.90;99.90
26803;DHT22;14378;51.796;5.808;2023-05-10T09:18:10;15.90;99.90
26803;DHT22;14378;51.796;5.808;2023-05-10T09:20:12;15.80;99.90
26803;DHT22;14378;51.796;5.808;2023-05-10T09:22:12;15.80;99.90
26803;DHT22;14378;51.796;5.808;2023-05-10T09:24:14;15.80;99.90
26803;DHT22;14378;51.796;5.808;2023-05-10T09:26:15;15.70;99.90
26803;DHT22;14378;51.796;5.808;2023-05-10T09:28:19;15.70;99.90
26803;DHT22;14378;51.796;5.808;2023-05-10T09:32:54;15.80;99.90
26803;DHT22;14378;51.796;5.808;2023-05-10T09:34:55;15.80;99.90
26803;DHT22;14378;51.796;5.808;2023-05-10T09:36:58;15.90;99.90
26803;DHT22;14378;51.796;5.808;2023-05-10T09:39:02;16.00;99.90
26803;DHT22;14378;51.796;5.808;2023-05-10T09:41:03;16.10;99.90
26803;DHT22;14378;51.796;5.808;2023-05-10T09:43:08;16.10;99.90
26803;DHT22;14378;51.796;5.808;2023-05-10T09:45:11;16.20;99.90
26803;DHT22;14378;51.796;5.808;2023-05-10T09:47:20;16.20;99.90
26803;DHT22;14378;51.796;5.808;2023-05-10T09:49:21;16.20;99.90
26803;DHT22;14378;51.796;5.808;2023-05-10T09:51:24;16.30;99.90
26803;DHT22;14378;51.796;5.808;2023-05-10T09:53:25;16.30;99.90
26803;DHT22;14378;51.796;5.808;2023-05-10T09:55:45;16.40;99.90
26803;DHT22;14378;51.796;5.808;2023-05-10T09:57:48;16.40;99.90
26803;DHT22;14378;51.796;5.808;2023-05-10T09:59:49;16.50;99.90
26803;DHT22;14378;51.796;5.808;2023-05-10T10:01:51;16.50;99.90
26803;DHT22;14378;51.796;5.808;2023-05-10T10:05:59;16.60;99.90
26803;DHT22;14378;51.796;5.808;2023-05-10T10:08:04;16.70;99.90
26803;DHT22;14378;51.796;5.808;2023-05-10T10:10:06;16.60;99.90
26803;DHT22;14378;51.796;5.808;2023-05-10T10:12:12;16.70;99.90
26803;DHT22;14378;51.796;5.808;2023-05-10T10:14:13;16.60;99.90
26803;DHT22;14378;51.796;5.808;2023-05-10T10:16:14;16.60;99.90
26803;DHT22;14378;51.796;5.808;2023-05-10T10:18:15;16.50;99.90
26803;DHT22;14378;51.796;5.808;2023-05-10T10:20:17;16.50;99.90
26803;DHT22;14378;51.796;5.808;2023-05-10T10:22:19;16.40;99.90
26803;DHT22;14378;51.796;5.808;2023-05-10T10:24:20;16.30;99.90
26803;DHT22;14378;51.796;5.808;2023-05-10T10:26:21;16.30;99.90
26803;DHT22;14378;51.796;5.808;2023-05-10T10:28:51;16.40;99.90
26803;DHT22;14378;51.796;5.808;2023-05-10T10:30:53;16.40;99.90
26803;DHT22;14378;51.796;5.808;2023-05-10T10:35:33;16.50;99.90
26803;DHT22;14378;51.796;5.808;2023-05-10T10:37:53;16.60;99.90
26803;DHT22;14378;51.796;5.808;2023-05-10T10:39:54;16.60;99.90
26803;DHT22;14378;51.796;5.808;2023-05-10T10:41:57;16.70;99.90
26803;DHT22;14378;51.796;5.808;2023-05-10T10:46:24;16.80;99.90
26803;DHT22;14378;51.796;5.808;2023-05-10T10:48:28;16.90;99.90
26803;DHT22;14378;51.796;5.808;2023-05-10T10:50:29;17.00;99.90
26803;DHT22;14378;51.796;5.808;2023-05-10T10:52:40;17.00;99.90
26803;DHT22;14378;51.796;5.808;2023-05-10T10:54:41;17.20;99.90
26803;DHT22;14378;51.796;5.808;2023-05-10T10:57:14;17.30;99.90
26803;DHT22;14378;51.796;5.808;2023-05-10T10:59:26;17.40;99.90
26803;DHT22;14378;51.796;5.808;2023-05-10T11:01:33;17.50;99.90
26803;DHT22;14378;51.796;5.808;2023-05-10T11:03:34;17.60;99.90
26803;DHT22;14378;51.796;5.808;2023-05-10T11:05:41;17.60;99.90
26803;DHT22;14378;51.796;5.808;2023-05-10T11:07:53;17.60;99.90
26803;DHT22;14378;51.796;5.808;2023-05-10T11:09:54;17.60;99.90
26803;DHT22;14378;51.796;5.808;2023-05-10T11:11:59;17.70;99.90
26803;DHT22;14378;51.796;5.808;2023-05-10T11:14:05;17.70;99.90
26803;DHT22;14378;51.796;5.808;2023-05-10T11:18:29;17.80;99.90
26803;DHT22;14378;51.796;5.808;2023-05-10T11:20:39;17.90;99.90
26803;DHT22;14378;51.796;5.808;2023-05-10T11:22:49;17.90;99.90
26803;DHT22;14378;51.796;5.808;2023-05-10T11:24:57;18.00;99.90
26803;DHT22;14378;51.796;5.808;2023-05-10T11:27:02;18.00;99.90
26803;DHT22;14378;51.796;5.808;2023-05-10T11:29:03;18.10;99.90
26803;DHT22;14378;51.796;5.808;2023-05-10T11:31:05;18.10;99.90
26803;DHT22;14378;51.796;5.808;2023-05-10T11:33:17;18.00;99.90
26803;DHT22;14378;51.796;5.808;2023-05-10T11:35:31;17.90;99.90
26803;DHT22;14378;51.796;5.808;2023-05-10T11:37:53;17.90;99.90
26803;DHT22;14378;51.796;5.808;2023-05-10T11:39:54;17.80;99.90
26803;DHT22;14378;51.796;5.808;2023-05-10T11:41:59;17.80;99.90
26803;DHT22;14378;51.796;5.808;2023-05-10T11:44:04;17.80;99.90
26803;DHT22;14378;51.796;5.808;2023-05-10T11:46:12;17.80;99.90
26803;DHT22;14378;51.796;5.808;2023-05-10T11:48:14;17.80;99.90
26803;DHT22;14378;51.796;5.808;2023-05-10T11:50:18;17.70;99.90
26803;DHT22;14378;51.796;5.808;2023-05-10T11:52:21;17.60;99.90
26803;DHT22;14378;51.796;5.808;2023-05-10T11:54:22;17.60;99.90
26803;DHT22;14378;51.796;5.808;2023-05-10T11:56:23;17.60;99.90
26803;DHT22;14378;51.796;5.808;2023-05-10T11:58:25;17.70;99.90
26803;DHT22;14378;51.796;5.808;2023-05-10T12:00:26;17.70;99.90
26803;DHT22;14378;51.796;5.808;2023-05-10T12:02:27;17.80;99.90
26803;DHT22;14378;51.796;5.808;2023-05-10T12:04:28;17.80;99.90
26803;DHT22;14378;51.796;5.808;2023-05-10T12:06:31;17.80;99.90
26803;DHT22;14378;51.796;5.808;2023-05-10T12:08:32;17.80;99.90
26803;DHT22;14378;51.796;5.808;2023-05-10T12:10:34;17.80;99.90
26803;DHT22;14378;51.796;5.808;2023-05-10T12:12:43;17.90;99.90
26803;DHT22;14378;51.796;5.808;2023-05-10T12:14:50;17.90;99.90
26803;DHT22;14378;51.796;5.808;2023-05-10T12:16:51;17.90;99.90
26803;DHT22;14378;51.796;5.808;2023-05-10T12:18:55;17.90;99.90
26803;DHT22;14378;51.796;5.808;2023-05-10T12:21:03;17.90;99.90
26803;DHT22;14378;51.796;5.808;2023-05-10T12:23:04;17.80;99.90
26803;DHT22;14378;51.796;5.808;2023-05-10T12:25:09;17.70;99.90
26803;DHT22;14378;51.796;5.808;2023-05-10T12:27:10;17.80;99.90
26803;DHT22;14378;51.796;5.808;2023-05-10T12:29:20;17.70;99.90
26803;DHT22;14378;51.796;5.808;2023-05-10T12:31:21;17.70;99.90
26803;DHT22;14378;51.796;5.808;2023-05-10T12:33:22;17.70;99.90
26803;DHT22;14378;51.796;5.808;2023-05-10T12:35:23;17.60;99.90
26803;DHT22;14378;51.796;5.808;2023-05-10T12:37:27;17.60;99.90
26803;DHT22;14378;51.796;5.808;2023-05-10T12:39:42;17.60;99.90
26803;DHT22;14378;51.796;5.808;2023-05-10T12:41:44;17.60;99.90
26803;DHT22;14378;51.796;5.808;2023-05-10T12:43:45;17.60;99.90
26803;DHT22;14378;51.796;5.808;2023-05-10T12:45:48;17.70;99.90
26803;DHT22;14378;51.796;5.808;2023-05-10T12:47:49;17.60;99.90
26803;DHT22;14378;51.796;5.808;2023-05-10T12:49:50;17.60;99.90
26803;DHT22;14378;51.796;5.808;2023-05-10T12:51:51;17.60;99.90
26803;DHT22;14378;51.796;5.808;2023-05-10T12:53:52;17.50;99.90
26803;DHT22;14378;51.796;5.808;2023-05-10T12:55:57;17.50;99.90
26803;DHT22;14378;51.796;5.808;2023-05-10T12:57:58;17.60;99.90
26803;DHT22;14378;51.796;5.808;2023-05-10T12:59:59;17.60;99.90
26803;DHT22;14378;51.796;5.808;2023-05-10T13:02:00;17.60;99.90
26803;DHT22;14378;51.796;5.808;2023-05-10T13:04:01;17.60;99.90
26803;DHT22;14378;51.796;5.808;2023-05-10T13:06:03;17.60;99.90
26803;DHT22;14378;51.796;5.808;2023-05-10T13:08:04;17.70;99.90
26803;DHT22;14378;51.796;5.808;2023-05-10T13:10:06;17.70;99.90
26803;DHT22;14378;51.796;5.808;2023-05-10T13:12:10;17.70;99.90
26803;DHT22;14378;51.796;5.808;2023-05-10T13:14:11;17.70;99.90
26803;DHT22;14378;51.796;5.808;2023-05-10T13:16:12;17.70;99.90
26803;DHT22;14378;51.796;5.808;2023-05-10T13:18:13;17.70;99.90
26803;DHT22;14378;51.796;5.808;2023-05-10T13:20:14;17.70;99.90
26803;DHT22;14378;51.796;5.808;2023-05-10T13:22:21;17.70;99.90
26803;DHT22;14378;51.796;5.808;2023-05-10T13:24:22;17.70;99.90
26803;DHT22;14378;51.796;5.808;2023-05-10T13:26:23;17.70;99.90
26803;DHT22;14378;51.796;5.808;2023-05-10T13:28:24;17.70;99.90
26803;DHT22;14378;51.796;5.808;2023-05-10T13:30:29;17.70;99.90
26803;DHT22;14378;51.796;5.808;2023-05-10T13:32:30;17.80;99.90
26803;DHT22;14378;51.796;5.808;2023-05-10T13:34:31;17.70;99.90
26803;DHT22;14378;51.796;5.808;2023-05-10T13:36:33;17.70;99.90